sensor_id;sensor_type;location;lat;lon;timestamp;temperature;humidity
29237;DHT22;16266;50.866;4.398;2022-09-09T00:02:19;15.10;99.90
29237;DHT22;16266;50.866;4.398;2022-09-09T00:05:25;15.10;99.90
29237;DHT22;16266;50.866;4.398;2022-09-09T00:07:55;15.20;99.90
29237;DHT22;16266;50.866;4.398;2022-09-09T00:10:33;15.20;99.90
29237;DHT22;16266;50.866;4.398;2022-09-09T00:16:12;15.20;99.90
29237;DHT22;16266;50.866;4.398;2022-09-09T00:19:18;15.10;99.90
29237;DHT22;16266;50.866;4.398;2022-09-09T00:22:00;15.10;99.90
29237;DHT22;16266;50.866;4.398;2022-09-09T00:24:41;15.10;99.90
29237;DHT22;16266;50.866;4.398;2022-09-09T00:29:47;15.00;99.90
29237;DHT22;16266;50.866;4.398;2022-09-09T00:32:19;15.00;99.90
29237;DHT22;16266;50.866;4.398;2022-09-09T00:34:52;14.90;99.90
29237;DHT22;16266;50.866;4.398;2022-09-09T00:37:20;15.00;99.90
29237;DHT22;16266;50.866;4.398;2022-09-09T00:39:49;15.00;99.90
29237;DHT22;16266;50.866;4.398;2022-09-09T00:42:23;15.10;99.90
29237;DHT22;16266;50.866;4.398;2022-09-09T00:45:05;15.10;99.90
29237;DHT22;16266;50.866;4.398;2022-09-09T00:47:44;15.20;99.90
29237;DHT22;16266;50.866;4.398;2022-09-09T00:50:38;15.20;99.90
29237;DHT22;16266;50.866;4.398;2022-09-09T00:53:30;15.30;99.90
29237;DHT22;16266;50.866;4.398;2022-09-09T00:56:13;15.30;99.90
29237;DHT22;16266;50.866;4.398;2022-09-09T00:58:42;15.20;99.90
29237;DHT22;16266;50.866;4.398;2022-09-09T01:01:11;15.30;99.90
29237;DHT22;16266;50.866;4.398;2022-09-09T01:03:49;15.30;99.90
29237;DHT22;16266;50.866;4.398;2022-09-09T01:06:38;15.40;99.90
29237;DHT22;16266;50.866;4.398;2022-09-09T01:17:23;15.30;99.90
29237;DHT22;16266;50.866;4.398;2022-09-09T01:20:13;15.30;99.90
29237;DHT22;16266;50.866;4.398;2022-09-09T01:23:06;15.30;99.90
29237;DHT22;16266;50.866;4.398;2022-09-09T01:28:25;15.20;99.90
29237;DHT22;16266;50.866;4.398;2022-09-09T01:30:51;15.30;99.90
29237;DHT22;16266;50.866;4.398;2022-09-09T01:33:18;15.30;99.90
29237;DHT22;16266;50.866;4.398;2022-09-09T01:35:55;15.20;99.90
29237;DHT22;16266;50.866;4.398;2022-09-09T01:38:24;15.20;99.90
29237;DHT22;16266;50.866;4.398;2022-09-09T01:40:51;15.20;99.90
29237;DHT22;16266;50.866;4.398;2022-09-09T01:43:20;15.20;99.90
29237;DHT22;16266;50.866;4.398;2022-09-09T01:45:49;15.20;99.90
29237;DHT22;16266;50.866;4.398;2022-09-09T01:48:17;15.30;99.90
29237;DHT22;16266;50.866;4.398;2022-09-09T01:50:43;15.20;99.90
29237;DHT22;16266;50.866;4.398;2022-09-09T01:53:09;15.30;99.90
29237;DHT22;16266;50.866;4.398;2022-09-09T01:55:42;15.20;99.90
29237;DHT22;16266;50.866;4.398;2022-09-09T02:01:08;15.10;99.90
29237;DHT22;16266;50.866;4.398;2022-09-09T02:03:38;15.10;99.90
29237;DHT22;16266;50.866;4.398;2022-09-09T02:06:13;15.10;99.90
29237;DHT22;16266;50.866;4.398;2022-09-09T02:08:46;15.10;99.90
29237;DHT22;16266;50.866;4.398;2022-09-09T02:11:21;15.10;99.90
29237;DHT22;16266;50.866;4.398;2022-09-09T02:13:50;15.10;99.90
29237;DHT22;16266;50.866;4.398;2022-09-09T02:19:11;15.10;99.90
29237;DHT22;16266;50.866;4.398;2022-09-09T02:21:40;15.10;99.90
29237;DHT22;16266;50.866;4.398;2022-09-09T02:24:07;15.10;99.90
29237;DHT22;16266;50.866;4.398;2022-09-09T02:26:40;15.10;99.90
29237;DHT22;16266;50.866;4.398;2022-09-09T02:29:15;15.10;99.90
29237;DHT22;16266;50.866;4.398;2022-09-09T02:31:44;15.10;99.90
29237;DHT22;16266;50.866;4.398;2022-09-09T02:34:12;15.10;99.90
29237;DHT22;16266;50.866;4.398;2022-09-09T02:36:40;15.20;99.90
29237;DHT22;16266;50.866;4.398;2022-09-09T02:39:08;15.30;99.90
29237;DHT22;16266;50.866;4.398;2022-09-09T02:41:37;15.20;99.90
29237;DHT22;16266;50.866;4.398;2022-09-09T02:44:12;15.20;99.90
29237;DHT22;16266;50.866;4.398;2022-09-09T02:54:31;15.20;99.90
29237;DHT22;16266;50.866;4.398;2022-09-09T02:57:10;15.20;99.90
29237;DHT22;16266;50.866;4.398;2022-09-09T02:59:37;15.20;99.90
29237;DHT22;16266;50.866;4.398;2022-09-09T03:02:03;15.20;99.90
29237;DHT22;16266;50.866;4.398;2022-09-09T03:04:28;15.10;99.90
29237;DHT22;16266;50.866;4.398;2022-09-09T03:06:55;15.10;99.90
29237;DHT22;16266;50.866;4.398;2022-09-09T03:09:21;15.10;99.90
29237;DHT22;16266;50.866;4.398;2022-09-09T03:11:46;15.10;99.90
29237;DHT22;16266;50.866;4.398;2022-09-09T03:14:12;15.10;99.90
29237;DHT22;16266;50.866;4.398;2022-09-09T03:16:37;15.20;99.90
29237;DHT22;16266;50.866;4.398;2022-09-09T03:19:03;15.20;99.90
29237;DHT22;16266;50.866;4.398;2022-09-09T03:21:29;15.10;99.90
29237;DHT22;16266;50.866;4.398;2022-09-09T03:23:54;15.10;99.90
29237;DHT22;16266;50.866;4.398;2022-09-09T03:26:20;15.20;99.90
29237;DHT22;16266;50.866;4.398;2022-09-09T03:28:46;15.10;99.90
29237;DHT22;16266;50.866;4.398;2022-09-09T03:31:12;15.30;99.90
29237;DHT22;16266;50.866;4.398;2022-09-09T03:33:38;15.20;99.90
29237;DHT22;16266;50.866;4.398;2022-09-09T03:36:04;15.10;99.90
29237;DHT22;16266;50.866;4.398;2022-09-09T03:38:30;15.10;99.90
29237;DHT22;16266;50.866;4.398;2022-09-09T03:40:57;15.00;99.90
29237;DHT22;16266;50.866;4.398;2022-09-09T03:43:24;15.00;99.90
29237;DHT22;16266;50.866;4.398;2022-09-09T03:45:50;15.10;99.90
29237;DHT22;16266;50.866;4.398;2022-09-09T03:48:17;15.10;99.90
29237;DHT22;16266;50.866;4.398;2022-09-09T03:50:50;15.10;99.90
29237;DHT22;16266;50.866;4.398;2022-09-09T03:53:19;15.10;99.90
29237;DHT22;16266;50.866;4.398;2022-09-09T03:55:49;15.20;99.90
29237;DHT22;16266;50.866;4.398;2022-09-09T03:58:18;15.00;99.90
29237;DHT22;16266;50.866;4.398;2022-09-09T04:00:59;15.10;99.90
29237;DHT22;16266;50.866;4.398;2022-09-09T04:03:26;14.90;99.90
29237;DHT22;16266;50.866;4.398;2022-09-09T04:05:52;15.00;99.90
29237;DHT22;16266;50.866;4.398;2022-09-09T04:08:19;15.00;99.90
29237;DHT22;16266;50.866;4.398;2022-09-09T04:10:46;15.10;99.90
29237;DHT22;16266;50.866;4.398;2022-09-09T04:13:13;15.10;99.90
29237;DHT22;16266;50.866;4.398;2022-09-09T04:15:40;15.20;99.90
29237;DHT22;16266;50.866;4.398;2022-09-09T04:18:06;15.30;99.90
29237;DHT22;16266;50.866;4.398;2022-09-09T04:20:31;15.30;99.90
29237;DHT22;16266;50.866;4.398;2022-09-09T04:22:58;15.30;99.90
29237;DHT22;16266;50.866;4.398;2022-09-09T04:25:23;15.20;99.90
29237;DHT22;16266;50.866;4.398;2022-09-09T04:27:56;15.10;99.90
29237;DHT22;16266;50.866;4.398;2022-09-09T04:30:22;15.20;99.90
29237;DHT22;16266;50.866;4.398;2022-09-09T04:32:48;15.10;99.90
29237;DHT22;16266;50.866;4.398;2022-09-09T04:35:14;15.10;99.90
29237;DHT22;16266;50.866;4.398;2022-09-09T04:37:40;15.10;99.90
29237;DHT22;16266;50.866;4.398;2022-09-09T04:40:07;15.10;99.90
29237;DHT22;16266;50.866;4.398;2022-09-09T04:42:39;15.10;99.90
29237;DHT22;16266;50.866;4.398;2022-09-09T04:45:05;15.10;99.90
29237;DHT22;16266;50.866;4.398;2022-09-09T04:47:32;15.10;99.90
29237;DHT22;16266;50.866;4.398;2022-09-09T04:49:58;15.10;99.90
29237;DHT22;16266;50.866;4.398;2022-09-09T04:52:23;15.00;99.90
29237;DHT22;16266;50.866;4.398;2022-09-09T04:54:49;15.00;99.90
29237;DHT22;16266;50.866;4.398;2022-09-09T04:57:14;15.00;99.90
29237;DHT22;16266;50.866;4.398;2022-09-09T04:59:40;15.00;99.90
29237;DHT22;16266;50.866;4.398;2022-09-09T05:02:06;15.00;99.90
29237;DHT22;16266;50.866;4.398;2022-09-09T05:04:31;15.00;99.90
29237;DHT22;16266;50.866;4.398;2022-09-09T05:06:58;14.90;99.90
29237;DHT22;16266;50.866;4.398;2022-09-09T05:09:24;15.00;99.90
29237;DHT22;16266;50.866;4.398;2022-09-09T05:11:50;14.90;99.90
29237;DHT22;16266;50.866;4.398;2022-09-09T05:14:15;15.00;99.90
29237;DHT22;16266;50.866;4.398;2022-09-09T05:16:41;15.00;99.90
29237;DHT22;16266;50.866;4.398;2022-09-09T05:19:07;15.10;99.90
29237;DHT22;16266;50.866;4.398;2022-09-09T05:21:33;15.20;99.90
29237;DHT22;16266;50.866;4.398;2022-09-09T05:23:59;15.30;99.90
29237;DHT22;16266;50.866;4.398;2022-09-09T05:26:26;15.20;99.90
29237;DHT22;16266;50.866;4.398;2022-09-09T05:28:52;15.30;99.90
29237;DHT22;16266;50.866;4.398;2022-09-09T05:31:19;15.40;99.90
29237;DHT22;16266;50.866;4.398;2022-09-09T05:33:46;15.40;99.90
29237;DHT22;16266;50.866;4.398;2022-09-09T05:36:16;15.40;99.90
29237;DHT22;16266;50.866;4.398;2022-09-09T05:38:43;15.60;99.90
29237;DHT22;16266;50.866;4.398;2022-09-09T05:41:09;15.60;99.90
29237;DHT22;16266;50.866;4.398;2022-09-09T05:43:36;15.70;99.90
29237;DHT22;16266;50.866;4.398;2022-09-09T05:46:03;15.80;99.90
29237;DHT22;16266;50.866;4.398;2022-09-09T05:48:34;15.80;99.90
29237;DHT22;16266;50.866;4.398;2022-09-09T05:51:01;15.90;99.90
29237;DHT22;16266;50.866;4.398;2022-09-09T05:53:27;15.90;99.90
29237;DHT22;16266;50.866;4.398;2022-09-09T05:56:07;15.90;99.90
29237;DHT22;16266;50.866;4.398;2022-09-09T05:58:35;15.90;99.90
29237;DHT22;16266;50.866;4.398;2022-09-09T06:01:04;15.90;99.90
29237;DHT22;16266;50.866;4.398;2022-09-09T06:03:30;15.90;99.90
29237;DHT22;16266;50.866;4.398;2022-09-09T06:05:58;16.20;99.90
29237;DHT22;16266;50.866;4.398;2022-09-09T06:08:24;16.20;99.90
29237;DHT22;16266;50.866;4.398;2022-09-09T06:10:49;16.30;99.90
29237;DHT22;16266;50.866;4.398;2022-09-09T06:13:15;16.20;99.90
29237;DHT22;16266;50.866;4.398;2022-09-09T06:15:49;16.20;99.90
29237;DHT22;16266;50.866;4.398;2022-09-09T06:18:15;16.20;99.90
29237;DHT22;16266;50.866;4.398;2022-09-09T06:20:43;16.40;99.90
29237;DHT22;16266;50.866;4.398;2022-09-09T06:23:19;17.10;99.90
29237;DHT22;16266;50.866;4.398;2022-09-09T06:25:45;17.50;99.90
29237;DHT22;16266;50.866;4.398;2022-09-09T06:28:11;17.40;99.90
29237;DHT22;16266;50.866;4.398;2022-09-09T06:30:37;17.40;99.90
29237;DHT22;16266;50.866;4.398;2022-09-09T06:33:03;17.60;99.90
29237;DHT22;16266;50.866;4.398;2022-09-09T06:35:29;17.60;99.90
29237;DHT22;16266;50.866;4.398;2022-09-09T06:37:57;17.90;99.90
29237;DHT22;16266;50.866;4.398;2022-09-09T06:40:24;18.10;99.90
29237;DHT22;16266;50.866;4.398;2022-09-09T06:42:50;17.90;99.90
29237;DHT22;16266;50.866;4.398;2022-09-09T06:45:15;17.70;99.90
29237;DHT22;16266;50.866;4.398;2022-09-09T06:47:41;17.60;99.90
29237;DHT22;16266;50.866;4.398;2022-09-09T06:50:07;17.50;99.90
29237;DHT22;16266;50.866;4.398;2022-09-09T06:52:33;17.40;99.90
29237;DHT22;16266;50.866;4.398;2022-09-09T06:54:59;17.30;99.90
29237;DHT22;16266;50.866;4.398;2022-09-09T06:57:24;17.30;99.90
29237;DHT22;16266;50.866;4.398;2022-09-09T06:59:51;17.30;99.90
29237;DHT22;16266;50.866;4.398;2022-09-09T07:02:16;17.50;99.90
29237;DHT22;16266;50.866;4.398;2022-09-09T07:04:42;17.50;99.90
29237;DHT22;16266;50.866;4.398;2022-09-09T07:07:08;17.60;99.90
29237;DHT22;16266;50.866;4.398;2022-09-09T07:09:35;17.70;99.90
29237;DHT22;16266;50.866;4.398;2022-09-09T07:12:01;17.70;99.90
29237;DHT22;16266;50.866;4.398;2022-09-09T07:14:26;17.70;99.90
29237;DHT22;16266;50.866;4.398;2022-09-09T07:16:53;17.80;99.90
29237;DHT22;16266;50.866;4.398;2022-09-09T07:19:18;17.80;99.90
29237;DHT22;16266;50.866;4.398;2022-09-09T07:21:44;17.90;99.90
29237;DHT22;16266;50.866;4.398;2022-09-09T07:24:10;18.00;99.90
29237;DHT22;16266;50.866;4.398;2022-09-09T07:26:37;17.90;99.90
29237;DHT22;16266;50.866;4.398;2022-09-09T07:29:03;18.00;99.90
29237;DHT22;16266;50.866;4.398;2022-09-09T07:31:32;18.10;99.90
29237;DHT22;16266;50.866;4.398;2022-09-09T07:33:58;18.00;99.90
29237;DHT22;16266;50.866;4.398;2022-09-09T07:36:30;17.90;99.90
29237;DHT22;16266;50.866;4.398;2022-09-09T07:39:01;17.80;99.90
29237;DHT22;16266;50.866;4.398;2022-09-09T07:43:59;17.80;99.90
29237;DHT22;16266;50.866;4.398;2022-09-09T07:46:28;17.90;99.90
29237;DHT22;16266;50.866;4.398;2022-09-09T07:48:55;17.80;99.90
29237;DHT22;16266;50.866;4.398;2022-09-09T07:51:25;17.70;99.90
29237;DHT22;16266;50.866;4.398;2022-09-09T07:53:57;17.60;99.90
29237;DHT22;16266;50.866;4.398;2022-09-09T07:56:23;17.80;99.90
29237;DHT22;16266;50.866;4.398;2022-09-09T07:58:51;18.00;99.90
29237;DHT22;16266;50.866;4.398;2022-09-09T08:01:25;17.90;99.90
29237;DHT22;16266;50.866;4.398;2022-09-09T08:04:00;17.90;99.90
29237;DHT22;16266;50.866;4.398;2022-09-09T08:06:32;18.10;99.90
29237;DHT22;16266;50.866;4.398;2022-09-09T08:08:59;18.40;99.90
29237;DHT22;16266;50.866;4.398;2022-09-09T08:11:26;18.90;99.90
29237;DHT22;16266;50.866;4.398;2022-09-09T08:13:52;19.30;99.90
29237;DHT22;16266;50.866;4.398;2022-09-09T08:16:27;19.80;99.90
29237;DHT22;16266;50.866;4.398;2022-09-09T08:18:53;20.20;99.90
29237;DHT22;16266;50.866;4.398;2022-09-09T08:21:23;20.50;99.90
29237;DHT22;16266;50.866;4.398;2022-09-09T08:23:51;20.30;99.90
29237;DHT22;16266;50.866;4.398;2022-09-09T08:26:22;19.80;99.90
29237;DHT22;16266;50.866;4.398;2022-09-09T08:28:54;19.70;99.90
29237;DHT22;16266;50.866;4.398;2022-09-09T08:31:38;19.70;99.90
29237;DHT22;16266;50.866;4.398;2022-09-09T08:34:06;19.90;99.90
29237;DHT22;16266;50.866;4.398;2022-09-09T08:36:47;19.70;99.90
29237;DHT22;16266;50.866;4.398;2022-09-09T08:39:15;19.50;99.90
29237;DHT22;16266;50.866;4.398;2022-09-09T08:44:31;18.90;99.90
29237;DHT22;16266;50.866;4.398;2022-09-09T08:50:26;19.00;99.90
29237;DHT22;16266;50.866;4.398;2022-09-09T08:55:48;18.00;99.90
29237;DHT22;16266;50.866;4.398;2022-09-09T08:58:41;17.70;99.90
29237;DHT22;16266;50.866;4.398;2022-09-09T09:03:48;17.80;99.90
29237;DHT22;16266;50.866;4.398;2022-09-09T09:09:26;17.80;99.90
29237;DHT22;16266;50.866;4.398;2022-09-09T09:11:58;17.60;99.90
29237;DHT22;16266;50.866;4.398;2022-09-09T09:14:33;17.70;99.90
29237;DHT22;16266;50.866;4.398;2022-09-09T09:17:15;17.60;99.90
29237;DHT22;16266;50.866;4.398;2022-09-09T09:19:42;17.50;99.90
29237;DHT22;16266;50.866;4.398;2022-09-09T09:22:21;17.40;99.90
29237;DHT22;16266;50.866;4.398;2022-09-09T09:27:35;17.30;99.90
29237;DHT22;16266;50.866;4.398;2022-09-09T09:30:22;17.30;99.90
29237;DHT22;16266;50.866;4.398;2022-09-09T09:32:56;17.30;99.90
29237;DHT22;16266;50.866;4.398;2022-09-09T09:35:23;17.50;99.90
29237;DHT22;16266;50.866;4.398;2022-09-09T09:37:49;17.40;99.90
29237;DHT22;16266;50.866;4.398;2022-09-09T09:40:18;17.30;99.90
29237;DHT22;16266;50.866;4.398;2022-09-09T09:42:56;17.20;99.90
29237;DHT22;16266;50.866;4.398;2022-09-09T09:45:41;17.20;99.90
29237;DHT22;16266;50.866;4.398;2022-09-09T09:48:14;17.00;99.90
29237;DHT22;16266;50.866;4.398;2022-09-09T09:50:54;17.10;99.90
29237;DHT22;16266;50.866;4.398;2022-09-09T09:53:25;17.10;99.90
29237;DHT22;16266;50.866;4.398;2022-09-09T09:56:00;17.10;99.90
29237;DHT22;16266;50.866;4.398;2022-09-09T09:58:31;17.10;99.90
29237;DHT22;16266;50.866;4.398;2022-09-09T10:01:00;17.30;99.90
29237;DHT22;16266;50.866;4.398;2022-09-09T10:05:52;17.40;99.90
29237;DHT22;16266;50.866;4.398;2022-09-09T10:08:18;17.50;99.90
29237;DHT22;16266;50.866;4.398;2022-09-09T10:14:08;17.30;99.90
29237;DHT22;16266;50.866;4.398;2022-09-09T10:19:30;17.20;99.90
29237;DHT22;16266;50.866;4.398;2022-09-09T10:22:11;17.40;99.90
29237;DHT22;16266;50.866;4.398;2022-09-09T10:35:33;18.40;99.90
29237;DHT22;16266;50.866;4.398;2022-09-09T10:51:28;22.80;99.90
29237;DHT22;16266;50.866;4.398;2022-09-09T10:56:55;23.00;99.90
29237;DHT22;16266;50.866;4.398;2022-09-09T10:59:31;23.30;99.90
29237;DHT22;16266;50.866;4.398;2022-09-09T11:02:25;23.80;99.90
29237;DHT22;16266;50.866;4.398;2022-09-09T11:05:41;23.80;99.90
29237;DHT22;16266;50.866;4.398;2022-09-09T11:07:51;24.10;99.90
29237;DHT22;16266;50.866;4.398;2022-09-09T11:10:41;24.50;99.90
29237;DHT22;16266;50.866;4.398;2022-09-09T11:13:10;24.40;99.90
29237;DHT22;16266;50.866;4.398;2022-09-09T11:15:53;23.70;99.90
29237;DHT22;16266;50.866;4.398;2022-09-09T11:18:22;23.00;99.90
29237;DHT22;16266;50.866;4.398;2022-09-09T11:20:55;22.60;99.90
29237;DHT22;16266;50.866;4.398;2022-09-09T11:23:37;22.20;99.90
29237;DHT22;16266;50.866;4.398;2022-09-09T11:26:05;22.20;99.90
29237;DHT22;16266;50.866;4.398;2022-09-09T11:29:13;22.20;99.90
29237;DHT22;16266;50.866;4.398;2022-09-09T11:34:44;21.90;99.90
29237;DHT22;16266;50.866;4.398;2022-09-09T11:40:18;22.00;99.90
29237;DHT22;16266;50.866;4.398;2022-09-09T11:42:46;22.10;99.90
29237;DHT22;16266;50.866;4.398;2022-09-09T11:45:26;21.50;99.90
29237;DHT22;16266;50.866;4.398;2022-09-09T11:47:58;21.20;99.90
29237;DHT22;16266;50.866;4.398;2022-09-09T11:52:50;21.20;99.90
29237;DHT22;16266;50.866;4.398;2022-09-09T11:58:17;20.90;99.90
29237;DHT22;16266;50.866;4.398;2022-09-09T12:00:46;20.90;99.90
29237;DHT22;16266;50.866;4.398;2022-09-09T12:03:35;21.10;99.90
29237;DHT22;16266;50.866;4.398;2022-09-09T12:06:13;21.20;99.90
29237;DHT22;16266;50.866;4.398;2022-09-09T12:08:43;21.50;99.90
29237;DHT22;16266;50.866;4.398;2022-09-09T12:11:11;21.50;99.90
29237;DHT22;16266;50.866;4.398;2022-09-09T12:13:36;21.50;99.90
29237;DHT22;16266;50.866;4.398;2022-09-09T12:16:02;21.60;99.90
29237;DHT22;16266;50.866;4.398;2022-09-09T12:23:55;21.10;99.90
29237;DHT22;16266;50.866;4.398;2022-09-09T12:26:34;20.90;99.90
29237;DHT22;16266;50.866;4.398;2022-09-09T12:29:04;20.90;99.90
29237;DHT22;16266;50.866;4.398;2022-09-09T12:34:14;21.60;99.90
29237;DHT22;16266;50.866;4.398;2022-09-09T12:36:41;22.20;99.90
29237;DHT22;16266;50.866;4.398;2022-09-09T12:39:15;22.50;99.90
29237;DHT22;16266;50.866;4.398;2022-09-09T12:41:51;22.40;99.90
29237;DHT22;16266;50.866;4.398;2022-09-09T12:44:22;22.40;99.90
29237;DHT22;16266;50.866;4.398;2022-09-09T12:46:48;22.50;99.90
29237;DHT22;16266;50.866;4.398;2022-09-09T12:49:36;23.00;99.90
29237;DHT22;16266;50.866;4.398;2022-09-09T12:52:13;23.00;99.90
29237;DHT22;16266;50.866;4.398;2022-09-09T12:54:44;22.80;99.90
29237;DHT22;16266;50.866;4.398;2022-09-09T12:57:12;22.70;99.90
29237;DHT22;16266;50.866;4.398;2022-09-09T12:59:41;22.90;99.90
29237;DHT22;16266;50.866;4.398;2022-09-09T13:02:25;22.80;99.90
29237;DHT22;16266;50.866;4.398;2022-09-09T13:04:51;22.90;99.90
29237;DHT22;16266;50.866;4.398;2022-09-09T13:07:19;23.30;99.90
29237;DHT22;16266;50.866;4.398;2022-09-09T13:09:46;23.60;99.90
29237;DHT22;16266;50.866;4.398;2022-09-09T13:12:18;23.30;99.90
29237;DHT22;16266;50.866;4.398;2022-09-09T13:14:47;22.90;99.90
29237;DHT22;16266;50.866;4.398;2022-09-09T13:17:27;22.80;99.90
29237;DHT22;16266;50.866;4.398;2022-09-09T13:19:56;23.10;99.90
29237;DHT22;16266;50.866;4.398;2022-09-09T13:22:36;23.80;99.90
29237;DHT22;16266;50.866;4.398;2022-09-09T13:28:05;23.40;99.90
29237;DHT22;16266;50.866;4.398;2022-09-09T13:30:35;22.80;99.90
29237;DHT22;16266;50.866;4.398;2022-09-09T13:35:29;22.80;99.90
29237;DHT22;16266;50.866;4.398;2022-09-09T13:37:55;23.10;99.90
29237;DHT22;16266;50.866;4.398;2022-09-09T13:40:22;23.80;99.90
29237;DHT22;16266;50.866;4.398;2022-09-09T13:42:52;24.00;99.90
29237;DHT22;16266;50.866;4.398;2022-09-09T13:45:20;24.10;99.90
29237;DHT22;16266;50.866;4.398;2022-09-09T13:47:46;24.00;99.90
29237;DHT22;16266;50.866;4.398;2022-09-09T13:50:23;23.70;99.90
29237;DHT22;16266;50.866;4.398;2022-09-09T13:52:50;24.00;99.90
29237;DHT22;16266;50.866;4.398;2022-09-09T13:55:19;24.50;99.90
29237;DHT22;16266;50.866;4.398;2022-09-09T13:57:55;24.40;99.90
29237;DHT22;16266;50.866;4.398;2022-09-09T14:00:34;24.50;99.90
29237;DHT22;16266;50.866;4.398;2022-09-09T14:02:59;24.10;99.90
29237;DHT22;16266;50.866;4.398;2022-09-09T14:05:30;23.80;99.90
29237;DHT22;16266;50.866;4.398;2022-09-09T14:07:57;24.00;99.90
29237;DHT22;16266;50.866;4.398;2022-09-09T14:10:23;24.20;99.90
29237;DHT22;16266;50.866;4.398;2022-09-09T14:12:49;24.30;99.90
29237;DHT22;16266;50.866;4.398;2022-09-09T14:15:14;24.50;99.90
29237;DHT22;16266;50.866;4.398;2022-09-09T14:17:40;24.60;99.90
29237;DHT22;16266;50.866;4.398;2022-09-09T14:20:10;24.50;99.90
29237;DHT22;16266;50.866;4.398;2022-09-09T14:22:37;24.50;99.90
29237;DHT22;16266;50.866;4.398;2022-09-09T14:25:04;24.00;99.90
29237;DHT22;16266;50.866;4.398;2022-09-09T14:27:31;23.30;99.90
29237;DHT22;16266;50.866;4.398;2022-09-09T14:29:58;23.10;99.90
29237;DHT22;16266;50.866;4.398;2022-09-09T14:32:25;23.00;99.90
29237;DHT22;16266;50.866;4.398;2022-09-09T14:34:51;23.20;99.90
29237;DHT22;16266;50.866;4.398;2022-09-09T14:37:17;22.90;99.90
29237;DHT22;16266;50.866;4.398;2022-09-09T14:39:43;22.90;99.90
29237;DHT22;16266;50.866;4.398;2022-09-09T14:42:10;22.90;99.90
29237;DHT22;16266;50.866;4.398;2022-09-09T14:44:37;23.00;99.90
29237;DHT22;16266;50.866;4.398;2022-09-09T14:47:13;22.90;99.90
29237;DHT22;16266;50.866;4.398;2022-09-09T14:49:38;22.70;99.90
29237;DHT22;16266;50.866;4.398;2022-09-09T14:52:04;22.70;99.90
29237;DHT22;16266;50.866;4.398;2022-09-09T14:54:33;22.60;99.90
29237;DHT22;16266;50.866;4.398;2022-09-09T14:56:59;22.70;99.90
29237;DHT22;16266;50.866;4.398;2022-09-09T14:59:25;22.80;99.90
29237;DHT22;16266;50.866;4.398;2022-09-09T15:01:50;23.00;99.90
29237;DHT22;16266;50.866;4.398;2022-09-09T15:04:16;23.10;99.90
29237;DHT22;16266;50.866;4.398;2022-09-09T15:06:42;23.10;99.90
29237;DHT22;16266;50.866;4.398;2022-09-09T15:09:12;23.10;99.90
29237;DHT22;16266;50.866;4.398;2022-09-09T15:11:38;23.20;99.90
29237;DHT22;16266;50.866;4.398;2022-09-09T15:14:05;23.00;99.90
29237;DHT22;16266;50.866;4.398;2022-09-09T15:16:31;22.70;99.90
29237;DHT22;16266;50.866;4.398;2022-09-09T15:19:00;22.70;99.90
29237;DHT22;16266;50.866;4.398;2022-09-09T15:21:29;22.70;99.90
29237;DHT22;16266;50.866;4.398;2022-09-09T15:23:56;22.80;99.90
29237;DHT22;16266;50.866;4.398;2022-09-09T15:26:22;22.70;99.90
29237;DHT22;16266;50.866;4.398;2022-09-09T15:28:48;22.60;99.90
29237;DHT22;16266;50.866;4.398;2022-09-09T15:31:21;22.40;99.90
29237;DHT22;16266;50.866;4.398;2022-09-09T15:33:52;22.00;99.90
29237;DHT22;16266;50.866;4.398;2022-09-09T15:36:19;21.70;99.90
29237;DHT22;16266;50.866;4.398;2022-09-09T15:38:44;21.50;99.90
29237;DHT22;16266;50.866;4.398;2022-09-09T15:41:11;21.30;99.90
29237;DHT22;16266;50.866;4.398;2022-09-09T15:43:43;21.20;99.90
29237;DHT22;16266;50.866;4.398;2022-09-09T15:46:31;21.10;99.90
29237;DHT22;16266;50.866;4.398;2022-09-09T15:51:38;21.10;99.90
29237;DHT22;16266;50.866;4.398;2022-09-09T15:54:05;21.20;99.90
29237;DHT22;16266;50.866;4.398;2022-09-09T15:56:31;21.30;99.90
29237;DHT22;16266;50.866;4.398;2022-09-09T15:58:59;21.20;99.90
29237;DHT22;16266;50.866;4.398;2022-09-09T16:01:26;21.20;99.90
29237;DHT22;16266;50.866;4.398;2022-09-09T16:03:52;21.20;99.90
29237;DHT22;16266;50.866;4.398;2022-09-09T16:06:21;21.30;99.90
29237;DHT22;16266;50.866;4.398;2022-09-09T16:08:49;21.40;99.90
29237;DHT22;16266;50.866;4.398;2022-09-09T16:11:24;21.50;99.90
29237;DHT22;16266;50.866;4.398;2022-09-09T16:13:52;21.50;99.90
29237;DHT22;16266;50.866;4.398;2022-09-09T16:16:19;21.50;99.90
29237;DHT22;16266;50.866;4.398;2022-09-09T16:18:49;21.40;99.90
29237;DHT22;16266;50.866;4.398;2022-09-09T16:21:26;21.30;99.90
29237;DHT22;16266;50.866;4.398;2022-09-09T16:23:55;21.10;99.90
29237;DHT22;16266;50.866;4.398;2022-09-09T16:26:21;21.00;99.90
29237;DHT22;16266;50.866;4.398;2022-09-09T16:28:46;20.90;99.90
29237;DHT22;16266;50.866;4.398;2022-09-09T16:31:18;20.80;99.90
29237;DHT22;16266;50.866;4.398;2022-09-09T16:33:44;20.40;99.90
29237;DHT22;16266;50.866;4.398;2022-09-09T16:36:12;20.00;99.90
29237;DHT22;16266;50.866;4.398;2022-09-09T16:38:39;19.50;99.90
29237;DHT22;16266;50.866;4.398;2022-09-09T16:41:06;19.30;99.90
29237;DHT22;16266;50.866;4.398;2022-09-09T16:43:33;19.00;99.90
29237;DHT22;16266;50.866;4.398;2022-09-09T16:46:00;18.90;99.90
29237;DHT22;16266;50.866;4.398;2022-09-09T16:48:35;18.80;99.90
29237;DHT22;16266;50.866;4.398;2022-09-09T16:51:06;18.90;99.90
29237;DHT22;16266;50.866;4.398;2022-09-09T16:53:33;18.90;99.90
29237;DHT22;16266;50.866;4.398;2022-09-09T16:56:24;19.00;99.90
29237;DHT22;16266;50.866;4.398;2022-09-09T16:58:56;19.10;99.90
29237;DHT22;16266;50.866;4.398;2022-09-09T17:01:27;19.30;99.90
29237;DHT22;16266;50.866;4.398;2022-09-09T17:03:54;19.30;99.90
29237;DHT22;16266;50.866;4.398;2022-09-09T17:06:21;19.20;99.90
29237;DHT22;16266;50.866;4.398;2022-09-09T17:08:46;19.20;99.90
29237;DHT22;16266;50.866;4.398;2022-09-09T17:11:18;19.10;99.90
29237;DHT22;16266;50.866;4.398;2022-09-09T17:13:47;19.10;99.90
29237;DHT22;16266;50.866;4.398;2022-09-09T17:16:16;19.10;99.90
29237;DHT22;16266;50.866;4.398;2022-09-09T17:18:42;19.10;99.90
29237;DHT22;16266;50.866;4.398;2022-09-09T17:21:11;19.00;99.90
29237;DHT22;16266;50.866;4.398;2022-09-09T17:23:38;19.00;99.90
29237;DHT22;16266;50.866;4.398;2022-09-09T17:26:09;18.90;99.90
29237;DHT22;16266;50.866;4.398;2022-09-09T17:28:36;18.90;99.90
29237;DHT22;16266;50.866;4.398;2022-09-09T17:31:04;18.70;99.90
29237;DHT22;16266;50.866;4.398;2022-09-09T17:33:33;18.60;99.90
29237;DHT22;16266;50.866;4.398;2022-09-09T17:35:59;18.50;99.90
29237;DHT22;16266;50.866;4.398;2022-09-09T17:38:27;18.30;99.90
29237;DHT22;16266;50.866;4.398;2022-09-09T17:41:03;18.30;99.90
29237;DHT22;16266;50.866;4.398;2022-09-09T17:43:29;18.10;99.90